createdAt,value
2023-04-03T00:02:59.066Z,4.70
2023-04-03T00:06:00.912Z,4.70
2023-04-03T00:09:02.505Z,4.60
2023-04-03T00:12:03.610Z,4.50
2023-04-03T00:15:05.832Z,4.40
2023-04-03T00:18:08.139Z,4.40
2023-04-03T00:21:14.303Z,4.40
2023-04-03T00:24:15.034Z,4.30
2023-04-03T00:27:17.065Z,4.30
2023-04-03T00:30:21.884Z,4.30
2023-04-03T00:33:23.132Z,4.30
2023-04-03T00:36:24.633Z,4.30
2023-04-03T00:39:25.864Z,4.30
2023-04-03T00:42:26.949Z,4.30
2023-04-03T00:45:37.828Z,4.20
2023-04-03T00:48:50.120Z,4.20
2023-04-03T00:51:52.228Z,4.20
2023-04-03T00:55:01.662Z,4.10
2023-04-03T00:58:04.499Z,4.10
2023-04-03T01:01:12.217Z,4.10
2023-04-03T01:04:39.786Z,4.10
2023-04-03T01:07:41.705Z,4.10
2023-04-03T01:10:42.995Z,4.00
2023-04-03T01:13:44.777Z,4.00
2023-04-03T01:16:55.033Z,4.00
2023-04-03T01:20:33.565Z,3.90
2023-04-03T01:23:52.776Z,3.80
2023-04-03T01:26:54.215Z,3.70
2023-04-03T01:29:55.688Z,3.70
2023-04-03T01:32:56.900Z,3.70
2023-04-03T01:35:58.653Z,3.60
2023-04-03T01:39:01.858Z,3.50
2023-04-03T01:42:04.939Z,3.50
2023-04-03T01:45:11.080Z,3.50
2023-04-03T01:48:12.228Z,3.50
2023-04-03T01:51:13.828Z,3.50
2023-04-03T01:54:15.106Z,3.40
2023-04-03T01:57:16.437Z,3.40
2023-04-03T02:00:18.952Z,3.30
2023-04-03T02:03:20.166Z,3.20
2023-04-03T02:06:21.304Z,3.20
2023-04-03T02:09:22.549Z,3.20
2023-04-03T02:12:23.702Z,3.10
2023-04-03T02:15:25.488Z,3.10
2023-04-03T02:18:26.735Z,3.10
2023-04-03T02:21:27.505Z,3.00
2023-04-03T02:24:28.920Z,3.00
2023-04-03T02:27:29.798Z,2.90
2023-04-03T02:30:30.830Z,2.90
2023-04-03T02:33:32.153Z,2.90
2023-04-03T02:36:33.928Z,2.80
2023-04-03T02:39:39.143Z,2.70
2023-04-03T02:42:40.638Z,2.80
2023-04-03T02:45:41.608Z,2.80
2023-04-03T02:48:42.984Z,2.70
2023-04-03T02:51:44.961Z,2.70
2023-04-03T02:54:46.400Z,2.70
2023-04-03T02:57:47.398Z,2.70
2023-04-03T03:00:49.280Z,2.70
2023-04-03T03:03:50.723Z,2.60
2023-04-03T03:06:52.119Z,2.60
2023-04-03T03:09:53.423Z,2.60
2023-04-03T03:12:54.509Z,2.60
2023-04-03T03:15:55.968Z,2.60
2023-04-03T03:18:57.926Z,2.50
2023-04-03T03:21:59.891Z,2.50
2023-04-03T03:25:01.974Z,2.50
2023-04-03T03:28:03.286Z,2.50
2023-04-03T03:31:05.552Z,2.50
2023-04-03T03:34:07.219Z,2.50
2023-04-03T03:37:09.007Z,2.60
2023-04-03T03:40:12.392Z,2.60
2023-04-03T03:43:13.563Z,2.60
2023-04-03T03:46:14.991Z,2.60
2023-04-03T03:49:16.564Z,2.60
2023-04-03T03:52:17.735Z,2.60
2023-04-03T03:55:19.564Z,2.60
2023-04-03T03:58:25.656Z,2.50
2023-04-03T04:01:27.273Z,2.40
2023-04-03T04:04:28.332Z,2.40
2023-04-03T04:07:30.620Z,2.40
2023-04-03T04:10:32.486Z,2.30
2023-04-03T04:13:34.591Z,2.30
2023-04-03T04:16:36.043Z,2.30
2023-04-03T04:19:42.867Z,2.30
2023-04-03T04:22:44.310Z,2.30
2023-04-03T04:25:48.572Z,2.20
2023-04-03T04:28:49.744Z,2.30
2023-04-03T04:31:52.373Z,2.20
2023-04-03T04:34:53.767Z,2.20
2023-04-03T04:37:55.352Z,2.30
2023-04-03T04:40:56.628Z,2.30
2023-04-03T04:43:58.826Z,2.20
2023-04-03T04:47:01.116Z,2.10
2023-04-03T04:50:02.969Z,2.10
2023-04-03T04:53:05.479Z,2.20
2023-04-03T04:56:07.419Z,2.20
2023-04-03T04:59:10.456Z,2.10
2023-04-03T05:02:11.802Z,2.10
2023-04-03T05:05:15.219Z,2.10
2023-04-03T05:08:16.904Z,2.10
2023-04-03T05:11:18.361Z,2.20
2023-04-03T05:14:21.148Z,2.20
2023-04-03T05:17:22.688Z,2.20
2023-04-03T05:20:27.633Z,2.20
2023-04-03T05:23:28.959Z,2.20
2023-04-03T05:26:33.038Z,2.20
2023-04-03T05:29:35.906Z,2.20
2023-04-03T05:32:38.866Z,2.20
2023-04-03T05:35:57.541Z,2.20
2023-04-03T05:39:02.003Z,2.20
2023-04-03T05:42:03.334Z,2.30
2023-04-03T05:45:06.088Z,2.20
2023-04-03T05:48:07.549Z,2.20
2023-04-03T05:51:16.687Z,2.20
2023-04-03T05:54:26.918Z,2.20
2023-04-03T05:57:33.887Z,2.30
2023-04-03T06:00:35.250Z,2.30
2023-04-03T06:03:40.144Z,2.30
2023-04-03T06:06:52.737Z,2.40
2023-04-03T06:09:54.081Z,2.30
2023-04-03T06:12:55.354Z,2.40
2023-04-03T06:15:56.748Z,2.40
2023-04-03T06:18:58.351Z,2.40
2023-04-03T06:21:59.698Z,2.40
2023-04-03T06:25:00.532Z,2.40
2023-04-03T06:28:01.383Z,2.40
2023-04-03T06:31:02.855Z,2.50
2023-04-03T06:34:06.765Z,2.50
2023-04-03T06:37:17.937Z,2.50
2023-04-03T06:40:24.938Z,2.50
2023-04-03T06:43:25.945Z,2.50
2023-04-03T06:46:28.480Z,2.50
2023-04-03T06:49:30.148Z,2.50
2023-04-03T06:52:31.247Z,2.50
2023-04-03T06:55:33.140Z,2.50
2023-04-03T06:58:34.069Z,2.50
2023-04-03T07:01:35.175Z,2.50
2023-04-03T07:04:37.565Z,2.50
2023-04-03T07:07:39.044Z,2.50
2023-04-03T07:10:40.228Z,2.50
2023-04-03T07:13:42.217Z,2.60
2023-04-03T07:16:43.340Z,2.60
2023-04-03T07:19:44.940Z,2.60
2023-04-03T07:22:45.907Z,2.60
2023-04-03T07:25:48.996Z,2.60
2023-04-03T07:28:51.090Z,2.60
2023-04-03T07:31:52.094Z,2.60
2023-04-03T07:34:53.108Z,2.70
2023-04-03T07:37:54.529Z,2.80
2023-04-03T07:40:55.471Z,2.90
2023-04-03T07:43:57.795Z,2.90
2023-04-03T07:46:58.892Z,2.90
2023-04-03T07:50:00.108Z,3.00
2023-04-03T07:53:01.087Z,3.00
2023-04-03T07:56:03.913Z,3.00
2023-04-03T07:59:05.278Z,3.00
2023-04-03T08:02:06.448Z,3.10
2023-04-03T08:05:08.151Z,3.10
2023-04-03T08:08:12.228Z,3.10
2023-04-03T08:11:13.289Z,3.20
2023-04-03T08:14:18.107Z,3.20
2023-04-03T08:17:19.485Z,3.30
2023-04-03T08:20:21.513Z,3.30
2023-04-03T08:23:22.757Z,3.30
2023-04-03T08:26:23.733Z,3.30
2023-04-03T08:29:25.847Z,3.40
2023-04-03T08:32:27.064Z,3.40
2023-04-03T08:35:28.084Z,3.60
2023-04-03T08:38:29.503Z,3.60
2023-04-03T08:41:41.150Z,3.60
2023-04-03T08:45:13.936Z,3.40
2023-04-03T08:48:36.333Z,3.50
2023-04-03T08:51:50.883Z,3.50
2023-04-03T08:55:02.536Z,3.70
2023-04-03T08:58:27.248Z,3.90
2023-04-03T09:01:37.010Z,3.90
2023-04-03T09:04:39.253Z,4.20
2023-04-03T09:07:50.058Z,4.50
2023-04-03T09:11:04.547Z,4.60
2023-04-03T09:14:19.710Z,4.60
2023-04-03T09:18:05.870Z,4.60
2023-04-03T09:21:43.821Z,4.60
2023-04-03T09:25:01.990Z,4.70
2023-04-03T09:28:03.971Z,4.70
2023-04-03T09:31:24.665Z,4.70
2023-04-03T09:34:38.217Z,4.50
2023-04-03T09:37:50.636Z,4.80
2023-04-03T09:41:08.696Z,4.80
2023-04-03T09:44:26.790Z,4.80
2023-04-03T09:47:35.309Z,4.90
2023-04-03T09:50:38.510Z,4.80
2023-04-03T09:53:44.299Z,4.90
2023-04-03T09:56:52.432Z,5.00
2023-04-03T10:00:02.489Z,5.10
2023-04-03T10:03:26.250Z,5.30
2023-04-03T10:06:27.104Z,5.70
2023-04-03T10:09:34.491Z,6.00
2023-04-03T10:12:35.198Z,6.00
2023-04-03T10:15:45.378Z,6.20
2023-04-03T10:19:19.256Z,6.10
2023-04-03T10:22:51.848Z,5.90
2023-04-03T10:26:30.672Z,5.80
2023-04-03T10:30:28.686Z,5.80
2023-04-03T10:33:53.288Z,5.60
2023-04-03T10:37:23.405Z,5.50
2023-04-03T10:41:08.372Z,5.50
2023-04-03T10:44:48.304Z,5.50
2023-04-03T10:48:17.542Z,5.80
2023-04-03T10:51:38.613Z,5.80
2023-04-03T10:55:35.611Z,5.70
2023-04-03T10:58:49.917Z,5.70
2023-04-03T11:02:08.217Z,5.50
2023-04-03T11:05:42.041Z,5.50
2023-04-03T11:08:52.770Z,5.50
2023-04-03T11:12:04.620Z,5.60
2023-04-03T11:15:07.265Z,5.70
2023-04-03T11:18:15.105Z,5.80
2023-04-03T11:21:22.957Z,5.80
2023-04-03T11:24:29.844Z,5.90
2023-04-03T11:27:43.468Z,6.10
2023-04-03T11:31:21.916Z,6.20
2023-04-03T11:34:35.738Z,6.50
2023-04-03T11:37:52.308Z,6.50
2023-04-03T11:40:55.663Z,6.50
2023-04-03T11:44:00.529Z,6.40
2023-04-03T11:47:03.981Z,6.40
2023-04-03T11:50:06.536Z,6.50
2023-04-03T11:53:07.740Z,6.50
2023-04-03T11:56:28.209Z,6.40
2023-04-03T11:59:39.198Z,6.50
2023-04-03T12:02:53.806Z,7.00
2023-04-03T12:06:08.299Z,7.00
2023-04-03T12:09:24.339Z,7.10
2023-04-03T12:12:34.933Z,6.80
2023-04-03T12:15:50.688Z,6.70
2023-04-03T12:23:26.066Z,6.40
2023-04-03T12:27:00.701Z,6.40
2023-04-03T12:30:05.000Z,6.30
2023-04-03T12:33:41.708Z,6.30
2023-04-03T12:37:10.355Z,6.10
2023-04-03T12:40:32.878Z,6.10
2023-04-03T12:44:00.896Z,6.00
2023-04-03T12:47:19.380Z,5.90
2023-04-03T12:50:31.365Z,5.90
2023-04-03T12:53:39.963Z,5.90
2023-04-03T12:56:41.566Z,5.90
2023-04-03T12:59:45.010Z,5.90
2023-04-03T13:02:47.746Z,6.00
2023-04-03T13:05:48.945Z,6.00
2023-04-03T13:09:01.424Z,5.90
2023-04-03T13:12:16.501Z,6.00
2023-04-03T13:15:27.296Z,6.00
2023-04-03T13:18:35.653Z,6.30
2023-04-03T13:21:36.966Z,6.20
2023-04-03T13:24:40.759Z,6.30
2023-04-03T13:27:45.125Z,6.40
2023-04-03T13:31:06.282Z,6.30
2023-04-03T13:34:22.658Z,6.30
2023-04-03T13:37:34.947Z,6.30
2023-04-03T13:41:23.097Z,6.40
2023-04-03T13:44:24.113Z,6.30
2023-04-03T13:47:26.458Z,6.40
2023-04-03T13:50:29.755Z,6.60
2023-04-03T13:53:35.443Z,6.50
2023-04-03T13:56:43.335Z,6.40
2023-04-03T13:59:45.924Z,6.50
2023-04-03T14:02:49.764Z,6.40
2023-04-03T14:05:51.683Z,6.40
2023-04-03T14:08:54.192Z,6.50
2023-04-03T14:12:06.074Z,6.50
2023-04-03T14:15:21.197Z,6.40
2023-04-03T14:18:22.434Z,6.40
2023-04-03T14:21:24.426Z,6.40
2023-04-03T14:24:26.393Z,6.20
2023-04-03T14:27:34.198Z,6.20
2023-04-03T14:30:36.825Z,6.20
2023-04-03T14:33:39.506Z,6.10
2023-04-03T14:36:44.158Z,6.10
2023-04-03T14:39:46.528Z,6.10
2023-04-03T14:42:49.490Z,6.10
2023-04-03T14:45:52.150Z,6.00
2023-04-03T14:48:53.544Z,6.00
2023-04-03T14:51:54.701Z,6.00
2023-04-03T14:54:57.163Z,5.80
2023-04-03T14:57:58.064Z,6.00
2023-04-03T15:00:59.342Z,5.80
2023-04-03T15:04:00.398Z,5.70
2023-04-03T15:07:01.527Z,5.70
2023-04-03T15:10:22.469Z,5.60
2023-04-03T15:13:25.036Z,5.70
2023-04-03T15:16:27.047Z,5.60
2023-04-03T15:19:28.131Z,5.70
2023-04-03T15:22:28.960Z,5.70
2023-04-03T15:25:31.197Z,5.60
2023-04-03T15:28:40.634Z,5.60
2023-04-03T15:31:41.807Z,5.70
2023-04-03T15:34:43.194Z,5.60
2023-04-03T15:37:44.460Z,5.60
2023-04-03T15:40:45.320Z,5.40
2023-04-03T15:43:46.243Z,5.50
2023-04-03T15:46:50.047Z,5.50
2023-04-03T15:49:51.484Z,5.40
2023-04-03T15:52:56.221Z,5.40
2023-04-03T15:55:57.374Z,5.40
2023-04-03T15:58:58.224Z,5.50
2023-04-03T16:02:00.951Z,5.50
2023-04-03T16:05:02.704Z,5.50
2023-04-03T16:08:04.485Z,5.40
2023-04-03T16:11:05.965Z,5.30
2023-04-03T16:14:08.714Z,5.40
2023-04-03T16:17:09.619Z,5.30
2023-04-03T16:20:14.590Z,5.20
2023-04-03T16:23:15.891Z,5.10
2023-04-03T16:26:18.746Z,5.20
2023-04-03T16:29:19.519Z,5.20
2023-04-03T16:32:20.694Z,5.10
2023-04-03T16:35:21.701Z,5.10
2023-04-03T16:38:23.468Z,5.00
2023-04-03T16:41:24.397Z,4.90
2023-04-03T16:44:25.155Z,4.90
2023-04-03T16:47:26.284Z,4.90
2023-04-03T16:50:27.664Z,4.80
2023-04-03T16:53:29.658Z,4.70
2023-04-03T16:56:31.174Z,4.80
2023-04-03T16:59:32.383Z,4.70
2023-04-03T17:02:33.712Z,4.70
2023-04-03T17:05:35.764Z,4.70
2023-04-03T17:08:37.367Z,4.70
2023-04-03T17:11:39.265Z,4.70
2023-04-03T17:14:40.271Z,4.60
2023-04-03T17:17:41.328Z,4.60
2023-04-03T17:20:42.438Z,4.60
2023-04-03T17:23:50.091Z,4.60
2023-04-03T17:26:51.280Z,4.50
2023-04-03T17:29:52.315Z,4.50
2023-04-03T17:32:53.470Z,4.50
2023-04-03T17:36:02.682Z,4.50
2023-04-03T17:39:04.234Z,4.50
2023-04-03T17:42:05.256Z,4.40
2023-04-03T17:45:07.347Z,4.30
2023-04-03T17:48:08.672Z,4.30
2023-04-03T17:51:17.304Z,4.30
2023-04-03T17:54:18.578Z,4.30
2023-04-03T17:57:20.071Z,4.20
2023-04-03T18:00:21.422Z,4.20
2023-04-03T18:03:22.372Z,4.20
2023-04-03T18:06:28.957Z,4.10
2023-04-03T18:09:35.452Z,4.10
2023-04-03T18:12:37.710Z,4.10
2023-04-03T18:15:45.810Z,4.10
2023-04-03T18:18:47.589Z,4.10
2023-04-03T18:21:48.843Z,4.10
2023-04-03T18:24:52.588Z,4.10
2023-04-03T18:27:53.495Z,4.00
2023-04-03T18:30:54.511Z,4.00
2023-04-03T18:33:59.104Z,4.00
2023-04-03T18:37:00.880Z,4.00
2023-04-03T18:40:02.028Z,4.00
2023-04-03T18:43:04.119Z,4.00
2023-04-03T18:46:07.352Z,3.90
2023-04-03T18:49:10.263Z,3.90
2023-04-03T18:52:12.850Z,3.80
2023-04-03T18:55:15.932Z,3.80
2023-04-03T18:58:16.648Z,3.80
2023-04-03T19:01:19.048Z,3.70
2023-04-03T19:04:20.012Z,3.70
2023-04-03T19:07:21.483Z,3.60
2023-04-03T19:10:23.098Z,3.60
2023-04-03T19:13:24.083Z,3.50
2023-04-03T19:16:26.026Z,3.50
2023-04-03T19:19:27.250Z,3.50
2023-04-03T19:22:27.961Z,3.50
2023-04-03T19:25:28.813Z,3.50
2023-04-03T19:28:30.221Z,3.40
2023-04-03T19:31:34.037Z,3.40
2023-04-03T19:34:35.277Z,3.30
2023-04-03T19:37:36.038Z,3.30
2023-04-03T19:40:38.414Z,3.30
2023-04-03T19:43:40.255Z,3.20
2023-04-03T19:46:41.312Z,3.20
2023-04-03T19:49:52.540Z,3.20
2023-04-03T19:52:53.585Z,3.20
2023-04-03T19:55:54.556Z,3.20
2023-04-03T19:58:55.668Z,3.10
2023-04-03T20:01:57.960Z,3.00
2023-04-03T20:04:59.034Z,3.00
2023-04-03T20:08:00.136Z,2.90
2023-04-03T20:11:01.404Z,2.80
2023-04-03T20:14:02.863Z,2.60
2023-04-03T20:17:04.740Z,2.60
2023-04-03T20:20:06.917Z,2.50
2023-04-03T20:23:11.505Z,2.50
2023-04-03T20:26:23.922Z,2.40
2023-04-03T20:29:26.385Z,2.40
2023-04-03T20:32:27.949Z,2.30
2023-04-03T20:35:28.982Z,2.30
2023-04-03T20:38:30.165Z,2.20
2023-04-03T20:41:34.808Z,2.20
2023-04-03T20:44:35.929Z,2.10
2023-04-03T20:47:37.505Z,2.10
2023-04-03T20:50:38.799Z,2.00
2023-04-03T20:53:41.449Z,1.90
2023-04-03T20:56:42.873Z,2.00
2023-04-03T20:59:44.130Z,2.00
2023-04-03T21:02:46.354Z,1.90
2023-04-03T21:05:47.475Z,1.80
2023-04-03T21:09:45.023Z,1.90
2023-04-03T21:13:42.996Z,1.70
2023-04-03T21:16:43.830Z,1.80
2023-04-03T21:19:48.943Z,1.80
2023-04-03T21:22:50.493Z,1.70
2023-04-03T21:25:51.623Z,1.60
2023-04-03T21:28:53.353Z,1.50
2023-04-03T21:31:58.086Z,1.50
2023-04-03T21:34:59.121Z,1.50
2023-04-03T21:38:00.386Z,1.50
2023-04-03T21:41:01.105Z,1.50
2023-04-03T21:44:02.652Z,1.40
2023-04-03T21:47:03.775Z,1.40
2023-04-03T21:50:05.176Z,1.50
2023-04-03T21:53:06.282Z,1.40
2023-04-03T21:56:07.417Z,1.40
2023-04-03T21:59:08.604Z,1.30
2023-04-03T22:02:09.993Z,1.40
2023-04-03T22:05:11.220Z,1.30
2023-04-03T22:08:12.311Z,1.40
2023-04-03T22:11:16.696Z,1.40
2023-04-03T22:14:18.833Z,1.40
2023-04-03T22:17:19.996Z,1.30
2023-04-03T22:20:20.875Z,1.30
2023-04-03T22:23:22.595Z,1.30
2023-04-03T22:26:23.567Z,1.30
2023-04-03T22:29:24.343Z,1.30
2023-04-03T22:32:25.277Z,1.20
2023-04-03T22:35:27.628Z,1.30
2023-04-03T22:38:28.482Z,1.30
2023-04-03T22:41:29.529Z,1.30
2023-04-03T22:44:36.078Z,1.20
2023-04-03T22:47:37.560Z,1.20
2023-04-03T22:50:40.236Z,1.10
2023-04-03T22:53:41.191Z,1.10
2023-04-03T22:56:42.350Z,1.00
2023-04-03T22:59:43.276Z,0.90
2023-04-03T23:02:44.821Z,0.90
2023-04-03T23:05:46.763Z,0.90
2023-04-03T23:08:47.539Z,0.80
2023-04-03T23:11:48.428Z,0.70
2023-04-03T23:14:49.085Z,0.70
2023-04-03T23:17:50.449Z,0.70
2023-04-03T23:20:52.109Z,0.70
2023-04-03T23:23:52.868Z,0.60
2023-04-03T23:26:53.821Z,0.50
2023-04-03T23:29:54.688Z,0.50
2023-04-03T23:32:55.681Z,0.50
2023-04-03T23:35:58.712Z,0.50
2023-04-03T23:38:59.895Z,0.40
2023-04-03T23:42:00.789Z,0.40
2023-04-03T23:45:01.649Z,0.30
2023-04-03T23:48:02.572Z,0.20
2023-04-03T23:51:04.221Z,0.20
2023-04-03T23:54:05.993Z,0.10
2023-04-03T23:57:07.157Z,0.00
